sensor_id;sensor_type;location;lat;lon;timestamp;P1;durP1;ratioP1;P2;durP2;ratioP2
56911;SDS011;42800;53.928;27.662;2022-07-23T00:01:24;8.52;;;5.75;;
56911;SDS011;42800;53.928;27.662;2022-07-23T00:03:52;16.52;;;4.20;;
56911;SDS011;42800;53.928;27.662;2022-07-23T00:06:19;6.45;;;3.90;;
56911;SDS011;42800;53.928;27.662;2022-07-23T00:08:46;9.85;;;5.20;;
56911;SDS011;42800;53.928;27.662;2022-07-23T00:11:12;7.10;;;5.55;;
56911;SDS011;42800;53.928;27.662;2022-07-23T00:13:39;8.65;;;4.20;;
56911;SDS011;42800;53.928;27.662;2022-07-23T00:16:05;5.40;;;3.80;;
56911;SDS011;42800;53.928;27.662;2022-07-23T00:18:32;6.35;;;4.15;;
56911;SDS011;42800;53.928;27.662;2022-07-23T00:20:58;7.93;;;4.43;;
56911;SDS011;42800;53.928;27.662;2022-07-23T00:23:25;8.70;;;4.20;;
56911;SDS011;42800;53.928;27.662;2022-07-23T00:25:52;8.63;;;4.35;;
56911;SDS011;42800;53.928;27.662;2022-07-23T00:28:18;8.27;;;4.38;;
56911;SDS011;42800;53.928;27.662;2022-07-23T00:30:45;4.30;;;3.75;;
56911;SDS011;42800;53.928;27.662;2022-07-23T00:33:11;9.73;;;5.68;;
56911;SDS011;42800;53.928;27.662;2022-07-23T00:35:39;7.72;;;4.30;;
56911;SDS011;42800;53.928;27.662;2022-07-23T00:38:06;8.23;;;3.95;;
56911;SDS011;42800;53.928;27.662;2022-07-23T00:40:34;7.78;;;5.35;;
56911;SDS011;42800;53.928;27.662;2022-07-23T00:43:02;7.78;;;4.63;;
56911;SDS011;42800;53.928;27.662;2022-07-23T00:45:29;12.20;;;4.50;;
56911;SDS011;42800;53.928;27.662;2022-07-23T00:47:56;11.50;;;5.88;;
56911;SDS011;42800;53.928;27.662;2022-07-23T00:50:22;8.07;;;5.45;;
56911;SDS011;42800;53.928;27.662;2022-07-23T00:52:50;5.22;;;4.13;;
56911;SDS011;42800;53.928;27.662;2022-07-23T00:55:17;7.05;;;3.78;;
56911;SDS011;42800;53.928;27.662;2022-07-23T00:57:43;6.53;;;3.53;;
56911;SDS011;42800;53.928;27.662;2022-07-23T01:00:11;11.93;;;5.80;;
56911;SDS011;42800;53.928;27.662;2022-07-23T01:02:38;6.85;;;4.53;;
56911;SDS011;42800;53.928;27.662;2022-07-23T01:05:07;8.00;;;5.85;;
56911;SDS011;42800;53.928;27.662;2022-07-23T01:07:33;7.43;;;4.07;;
56911;SDS011;42800;53.928;27.662;2022-07-23T01:10:00;7.50;;;5.45;;
56911;SDS011;42800;53.928;27.662;2022-07-23T01:12:27;6.43;;;5.43;;
56911;SDS011;42800;53.928;27.662;2022-07-23T01:14:53;6.47;;;4.18;;
56911;SDS011;42800;53.928;27.662;2022-07-23T01:17:20;9.40;;;4.45;;
56911;SDS011;42800;53.928;27.662;2022-07-23T01:19:46;5.63;;;3.97;;
56911;SDS011;42800;53.928;27.662;2022-07-23T01:22:13;7.75;;;4.28;;
56911;SDS011;42800;53.928;27.662;2022-07-23T01:24:43;6.43;;;4.00;;
56911;SDS011;42800;53.928;27.662;2022-07-23T01:27:09;9.88;;;4.60;;
56911;SDS011;42800;53.928;27.662;2022-07-23T01:29:37;8.35;;;5.65;;
56911;SDS011;42800;53.928;27.662;2022-07-23T01:32:04;9.38;;;5.78;;
56911;SDS011;42800;53.928;27.662;2022-07-23T01:34:30;9.63;;;4.30;;
56911;SDS011;42800;53.928;27.662;2022-07-23T01:36:57;5.03;;;3.85;;
56911;SDS011;42800;53.928;27.662;2022-07-23T01:39:23;6.97;;;4.40;;
56911;SDS011;42800;53.928;27.662;2022-07-23T01:41:50;9.50;;;4.78;;
56911;SDS011;42800;53.928;27.662;2022-07-23T01:44:16;6.72;;;4.30;;
56911;SDS011;42800;53.928;27.662;2022-07-23T01:46:42;7.97;;;4.75;;
56911;SDS011;42800;53.928;27.662;2022-07-23T01:49:09;10.30;;;4.93;;
56911;SDS011;42800;53.928;27.662;2022-07-23T01:51:35;23.08;;;4.53;;
56911;SDS011;42800;53.928;27.662;2022-07-23T01:54:01;9.00;;;4.25;;
56911;SDS011;42800;53.928;27.662;2022-07-23T01:56:28;20.10;;;5.65;;
56911;SDS011;42800;53.928;27.662;2022-07-23T01:58:55;9.13;;;5.18;;
56911;SDS011;42800;53.928;27.662;2022-07-23T02:01:21;8.40;;;4.93;;
56911;SDS011;42800;53.928;27.662;2022-07-23T02:03:47;13.07;;;4.63;;
56911;SDS011;42800;53.928;27.662;2022-07-23T02:06:13;9.55;;;4.18;;
56911;SDS011;42800;53.928;27.662;2022-07-23T02:08:40;12.35;;;6.10;;
56911;SDS011;42800;53.928;27.662;2022-07-23T02:11:06;10.52;;;4.85;;
56911;SDS011;42800;53.928;27.662;2022-07-23T02:13:32;9.57;;;4.30;;
56911;SDS011;42800;53.928;27.662;2022-07-23T02:15:59;7.05;;;4.00;;
56911;SDS011;42800;53.928;27.662;2022-07-23T02:18:25;7.13;;;4.40;;
56911;SDS011;42800;53.928;27.662;2022-07-23T02:20:51;8.88;;;4.65;;
56911;SDS011;42800;53.928;27.662;2022-07-23T02:23:18;7.38;;;4.45;;
56911;SDS011;42800;53.928;27.662;2022-07-23T02:25:44;7.45;;;4.15;;
56911;SDS011;42800;53.928;27.662;2022-07-23T02:28:10;10.93;;;4.68;;
56911;SDS011;42800;53.928;27.662;2022-07-23T02:30:37;8.65;;;5.30;;
56911;SDS011;42800;53.928;27.662;2022-07-23T02:33:05;15.85;;;5.15;;
56911;SDS011;42800;53.928;27.662;2022-07-23T02:35:31;8.32;;;4.60;;
56911;SDS011;42800;53.928;27.662;2022-07-23T02:37:57;11.20;;;4.65;;
56911;SDS011;42800;53.928;27.662;2022-07-23T02:40:23;7.70;;;4.78;;
56911;SDS011;42800;53.928;27.662;2022-07-23T02:42:50;10.70;;;5.85;;
56911;SDS011;42800;53.928;27.662;2022-07-23T02:45:16;10.68;;;6.18;;
56911;SDS011;42800;53.928;27.662;2022-07-23T02:47:42;9.57;;;5.70;;
56911;SDS011;42800;53.928;27.662;2022-07-23T02:50:09;10.57;;;4.00;;
56911;SDS011;42800;53.928;27.662;2022-07-23T02:52:37;12.15;;;4.35;;
56911;SDS011;42800;53.928;27.662;2022-07-23T02:55:04;10.35;;;4.07;;
56911;SDS011;42800;53.928;27.662;2022-07-23T02:57:31;14.20;;;4.43;;
56911;SDS011;42800;53.928;27.662;2022-07-23T02:59:57;14.65;;;5.68;;
56911;SDS011;42800;53.928;27.662;2022-07-23T03:02:23;5.82;;;4.22;;
56911;SDS011;42800;53.928;27.662;2022-07-23T03:04:50;9.98;;;4.45;;
56911;SDS011;42800;53.928;27.662;2022-07-23T03:07:17;14.77;;;6.25;;
56911;SDS011;42800;53.928;27.662;2022-07-23T03:09:44;10.38;;;6.07;;
56911;SDS011;42800;53.928;27.662;2022-07-23T03:12:10;8.32;;;5.40;;
56911;SDS011;42800;53.928;27.662;2022-07-23T03:14:36;11.98;;;4.60;;
56911;SDS011;42800;53.928;27.662;2022-07-23T03:17:02;12.93;;;4.22;;
56911;SDS011;42800;53.928;27.662;2022-07-23T03:19:29;11.30;;;4.68;;
56911;SDS011;42800;53.928;27.662;2022-07-23T03:21:55;6.63;;;3.92;;
56911;SDS011;42800;53.928;27.662;2022-07-23T03:24:22;9.02;;;4.32;;
56911;SDS011;42800;53.928;27.662;2022-07-23T03:27:09;12.70;;;5.85;;
56911;SDS011;42800;53.928;27.662;2022-07-23T03:29:35;5.22;;;3.97;;
56911;SDS011;42800;53.928;27.662;2022-07-23T03:32:02;8.40;;;3.80;;
56911;SDS011;42800;53.928;27.662;2022-07-23T03:34:28;9.73;;;4.68;;
56911;SDS011;42800;53.928;27.662;2022-07-23T03:36:54;17.50;;;6.32;;
56911;SDS011;42800;53.928;27.662;2022-07-23T03:39:21;13.60;;;4.57;;
56911;SDS011;42800;53.928;27.662;2022-07-23T03:41:48;23.13;;;6.07;;
56911;SDS011;42800;53.928;27.662;2022-07-23T03:44:14;22.92;;;5.72;;
56911;SDS011;42800;53.928;27.662;2022-07-23T03:46:40;11.10;;;5.63;;
56911;SDS011;42800;53.928;27.662;2022-07-23T03:49:06;12.02;;;5.82;;
56911;SDS011;42800;53.928;27.662;2022-07-23T03:51:32;10.80;;;5.32;;
56911;SDS011;42800;53.928;27.662;2022-07-23T03:53:59;9.45;;;5.50;;
56911;SDS011;42800;53.928;27.662;2022-07-23T03:56:26;9.75;;;5.45;;
56911;SDS011;42800;53.928;27.662;2022-07-23T03:58:52;9.55;;;5.68;;
56911;SDS011;42800;53.928;27.662;2022-07-23T04:01:18;12.18;;;5.43;;
56911;SDS011;42800;53.928;27.662;2022-07-23T04:03:44;12.48;;;5.18;;
56911;SDS011;42800;53.928;27.662;2022-07-23T04:06:11;9.88;;;5.38;;
56911;SDS011;42800;53.928;27.662;2022-07-23T04:08:37;8.85;;;5.00;;
56911;SDS011;42800;53.928;27.662;2022-07-23T04:11:04;13.73;;;5.45;;
56911;SDS011;42800;53.928;27.662;2022-07-23T04:13:31;7.53;;;5.20;;
56911;SDS011;42800;53.928;27.662;2022-07-23T04:15:57;8.55;;;4.90;;
56911;SDS011;42800;53.928;27.662;2022-07-23T04:18:24;8.82;;;5.10;;
56911;SDS011;42800;53.928;27.662;2022-07-23T04:20:50;9.38;;;5.40;;
56911;SDS011;42800;53.928;27.662;2022-07-23T04:23:17;11.55;;;5.55;;
56911;SDS011;42800;53.928;27.662;2022-07-23T04:25:43;6.35;;;4.63;;
56911;SDS011;42800;53.928;27.662;2022-07-23T04:28:10;7.07;;;4.43;;
56911;SDS011;42800;53.928;27.662;2022-07-23T04:30:37;11.73;;;4.90;;
56911;SDS011;42800;53.928;27.662;2022-07-23T04:33:03;10.93;;;5.20;;
56911;SDS011;42800;53.928;27.662;2022-07-23T04:35:31;17.27;;;4.90;;
56911;SDS011;42800;53.928;27.662;2022-07-23T04:37:58;16.70;;;5.68;;
56911;SDS011;42800;53.928;27.662;2022-07-23T04:40:24;9.43;;;5.10;;
56911;SDS011;42800;53.928;27.662;2022-07-23T04:42:50;12.88;;;5.60;;
56911;SDS011;42800;53.928;27.662;2022-07-23T04:45:17;12.27;;;5.85;;
56911;SDS011;42800;53.928;27.662;2022-07-23T04:47:44;5.18;;;4.63;;
56911;SDS011;42800;53.928;27.662;2022-07-23T04:50:10;7.05;;;4.20;;
56911;SDS011;42800;53.928;27.662;2022-07-23T04:52:36;6.07;;;4.20;;
56911;SDS011;42800;53.928;27.662;2022-07-23T04:55:03;6.68;;;4.07;;
56911;SDS011;42800;53.928;27.662;2022-07-23T04:57:30;6.03;;;3.70;;
56911;SDS011;42800;53.928;27.662;2022-07-23T04:59:56;5.75;;;4.55;;
56911;SDS011;42800;53.928;27.662;2022-07-23T05:02:22;7.93;;;3.28;;
56911;SDS011;42800;53.928;27.662;2022-07-23T05:04:49;3.75;;;2.90;;
56911;SDS011;42800;53.928;27.662;2022-07-23T05:07:15;5.72;;;2.92;;
56911;SDS011;42800;53.928;27.662;2022-07-23T05:09:42;4.50;;;3.00;;
56911;SDS011;42800;53.928;27.662;2022-07-23T05:12:08;6.03;;;3.30;;
56911;SDS011;42800;53.928;27.662;2022-07-23T05:14:34;6.30;;;2.97;;
56911;SDS011;42800;53.928;27.662;2022-07-23T05:17:00;6.10;;;3.40;;
56911;SDS011;42800;53.928;27.662;2022-07-23T05:19:26;5.03;;;3.03;;
56911;SDS011;42800;53.928;27.662;2022-07-23T05:21:53;5.40;;;2.80;;
56911;SDS011;42800;53.928;27.662;2022-07-23T05:24:20;3.65;;;3.17;;
56911;SDS011;42800;53.928;27.662;2022-07-23T05:26:46;9.23;;;3.30;;
56911;SDS011;42800;53.928;27.662;2022-07-23T05:29:12;4.43;;;2.85;;
56911;SDS011;42800;53.928;27.662;2022-07-23T05:31:38;4.28;;;2.95;;
56911;SDS011;42800;53.928;27.662;2022-07-23T05:34:05;8.52;;;3.03;;
56911;SDS011;42800;53.928;27.662;2022-07-23T05:36:31;8.60;;;3.20;;
56911;SDS011;42800;53.928;27.662;2022-07-23T05:38:58;7.07;;;2.75;;
56911;SDS011;42800;53.928;27.662;2022-07-23T05:41:24;4.20;;;2.90;;
56911;SDS011;42800;53.928;27.662;2022-07-23T05:43:51;5.15;;;2.97;;
56911;SDS011;42800;53.928;27.662;2022-07-23T05:46:17;6.50;;;2.80;;
56911;SDS011;42800;53.928;27.662;2022-07-23T05:48:43;6.07;;;2.88;;
56911;SDS011;42800;53.928;27.662;2022-07-23T05:51:11;11.00;;;3.20;;
56911;SDS011;42800;53.928;27.662;2022-07-23T05:53:37;5.18;;;2.50;;
56911;SDS011;42800;53.928;27.662;2022-07-23T05:56:04;7.78;;;3.47;;
56911;SDS011;42800;53.928;27.662;2022-07-23T05:58:30;5.82;;;2.50;;
56911;SDS011;42800;53.928;27.662;2022-07-23T06:00:57;2.90;;;2.70;;
56911;SDS011;42800;53.928;27.662;2022-07-23T06:03:23;5.70;;;3.40;;
56911;SDS011;42800;53.928;27.662;2022-07-23T06:05:50;5.20;;;3.03;;
56911;SDS011;42800;53.928;27.662;2022-07-23T06:08:16;3.58;;;2.75;;
56911;SDS011;42800;53.928;27.662;2022-07-23T06:10:42;3.38;;;2.60;;
56911;SDS011;42800;53.928;27.662;2022-07-23T06:13:09;6.07;;;2.63;;
56911;SDS011;42800;53.928;27.662;2022-07-23T06:15:36;5.38;;;2.85;;
56911;SDS011;42800;53.928;27.662;2022-07-23T06:18:02;5.82;;;2.75;;
56911;SDS011;42800;53.928;27.662;2022-07-23T06:20:28;4.60;;;2.72;;
56911;SDS011;42800;53.928;27.662;2022-07-23T06:22:55;3.78;;;3.03;;
56911;SDS011;42800;53.928;27.662;2022-07-23T06:25:21;5.82;;;3.40;;
56911;SDS011;42800;53.928;27.662;2022-07-23T06:27:47;3.53;;;2.90;;
56911;SDS011;42800;53.928;27.662;2022-07-23T06:30:15;5.55;;;3.30;;
56911;SDS011;42800;53.928;27.662;2022-07-23T06:32:42;3.67;;;3.15;;
56911;SDS011;42800;53.928;27.662;2022-07-23T06:35:09;6.65;;;3.20;;
56911;SDS011;42800;53.928;27.662;2022-07-23T06:37:35;5.53;;;3.00;;
56911;SDS011;42800;53.928;27.662;2022-07-23T06:40:01;5.75;;;3.17;;
56911;SDS011;42800;53.928;27.662;2022-07-23T06:42:28;5.28;;;3.10;;
56911;SDS011;42800;53.928;27.662;2022-07-23T06:44:54;10.88;;;3.30;;
56911;SDS011;42800;53.928;27.662;2022-07-23T06:47:21;5.97;;;3.25;;
56911;SDS011;42800;53.928;27.662;2022-07-23T06:49:47;8.75;;;3.50;;
56911;SDS011;42800;53.928;27.662;2022-07-23T06:52:14;5.28;;;3.35;;
56911;SDS011;42800;53.928;27.662;2022-07-23T06:54:40;3.50;;;3.20;;
56911;SDS011;42800;53.928;27.662;2022-07-23T06:57:06;5.07;;;3.88;;
56911;SDS011;42800;53.928;27.662;2022-07-23T06:59:32;5.88;;;3.80;;
56911;SDS011;42800;53.928;27.662;2022-07-23T07:02:01;11.75;;;4.38;;
56911;SDS011;42800;53.928;27.662;2022-07-23T07:04:28;6.97;;;4.15;;
56911;SDS011;42800;53.928;27.662;2022-07-23T07:06:54;12.05;;;4.30;;
56911;SDS011;42800;53.928;27.662;2022-07-23T07:09:20;5.53;;;4.32;;
56911;SDS011;42800;53.928;27.662;2022-07-23T07:11:47;8.75;;;5.68;;
56911;SDS011;42800;53.928;27.662;2022-07-23T07:14:13;7.65;;;4.80;;
56911;SDS011;42800;53.928;27.662;2022-07-23T07:16:39;5.65;;;3.72;;
56911;SDS011;42800;53.928;27.662;2022-07-23T07:19:05;12.05;;;3.90;;
56911;SDS011;42800;53.928;27.662;2022-07-23T07:21:32;5.18;;;4.28;;
56911;SDS011;42800;53.928;27.662;2022-07-23T07:23:58;7.45;;;4.40;;
56911;SDS011;42800;53.928;27.662;2022-07-23T07:26:25;6.35;;;4.65;;
56911;SDS011;42800;53.928;27.662;2022-07-23T07:28:51;12.85;;;3.85;;
56911;SDS011;42800;53.928;27.662;2022-07-23T07:31:17;4.30;;;3.53;;
56911;SDS011;42800;53.928;27.662;2022-07-23T07:33:44;6.13;;;3.83;;
56911;SDS011;42800;53.928;27.662;2022-07-23T07:36:10;6.10;;;4.13;;
56911;SDS011;42800;53.928;27.662;2022-07-23T07:38:37;4.53;;;3.20;;
56911;SDS011;42800;53.928;27.662;2022-07-23T07:41:03;3.85;;;3.33;;
56911;SDS011;42800;53.928;27.662;2022-07-23T07:43:29;3.97;;;3.53;;
56911;SDS011;42800;53.928;27.662;2022-07-23T07:45:56;7.03;;;3.85;;
56911;SDS011;42800;53.928;27.662;2022-07-23T07:48:22;6.00;;;3.85;;
56911;SDS011;42800;53.928;27.662;2022-07-23T07:50:48;5.90;;;3.95;;
56911;SDS011;42800;53.928;27.662;2022-07-23T07:53:14;4.45;;;3.60;;
56911;SDS011;42800;53.928;27.662;2022-07-23T07:55:41;3.90;;;3.60;;
56911;SDS011;42800;53.928;27.662;2022-07-23T07:58:07;6.72;;;3.95;;
56911;SDS011;42800;53.928;27.662;2022-07-23T08:00:33;6.80;;;3.97;;
56911;SDS011;42800;53.928;27.662;2022-07-23T08:03:00;7.60;;;3.95;;
56911;SDS011;42800;53.928;27.662;2022-07-23T08:05:27;6.03;;;4.05;;
56911;SDS011;42800;53.928;27.662;2022-07-23T08:07:55;6.55;;;4.10;;
56911;SDS011;42800;53.928;27.662;2022-07-23T08:10:22;6.90;;;4.70;;
56911;SDS011;42800;53.928;27.662;2022-07-23T08:12:50;4.82;;;3.95;;
56911;SDS011;42800;53.928;27.662;2022-07-23T08:15:18;7.25;;;3.97;;
56911;SDS011;42800;53.928;27.662;2022-07-23T08:17:46;6.45;;;3.78;;
56911;SDS011;42800;53.928;27.662;2022-07-23T08:20:13;8.18;;;4.28;;
56911;SDS011;42800;53.928;27.662;2022-07-23T08:22:41;6.95;;;4.45;;
56911;SDS011;42800;53.928;27.662;2022-07-23T08:25:11;9.02;;;4.20;;
56911;SDS011;42800;53.928;27.662;2022-07-23T08:27:38;4.82;;;4.32;;
56911;SDS011;42800;53.928;27.662;2022-07-23T08:30:06;15.48;;;4.78;;
56911;SDS011;42800;53.928;27.662;2022-07-23T08:32:33;6.72;;;4.68;;
56911;SDS011;42800;53.928;27.662;2022-07-23T08:34:59;7.00;;;4.20;;
56911;SDS011;42800;53.928;27.662;2022-07-23T08:37:25;7.47;;;4.40;;
56911;SDS011;42800;53.928;27.662;2022-07-23T08:39:52;5.88;;;4.28;;
56911;SDS011;42800;53.928;27.662;2022-07-23T08:42:18;4.85;;;3.83;;
56911;SDS011;42800;53.928;27.662;2022-07-23T08:44:46;6.68;;;4.05;;
56911;SDS011;42800;53.928;27.662;2022-07-23T08:47:14;8.18;;;4.72;;
56911;SDS011;42800;53.928;27.662;2022-07-23T08:49:41;7.35;;;4.57;;
56911;SDS011;42800;53.928;27.662;2022-07-23T08:52:08;9.23;;;4.78;;
56911;SDS011;42800;53.928;27.662;2022-07-23T08:54:34;4.63;;;4.00;;
56911;SDS011;42800;53.928;27.662;2022-07-23T08:57:01;9.38;;;4.68;;
56911;SDS011;42800;53.928;27.662;2022-07-23T08:59:28;4.45;;;4.05;;
56911;SDS011;42800;53.928;27.662;2022-07-23T09:01:54;4.78;;;4.28;;
56911;SDS011;42800;53.928;27.662;2022-07-23T09:04:21;5.80;;;4.97;;
56911;SDS011;42800;53.928;27.662;2022-07-23T09:06:48;6.60;;;4.72;;
56911;SDS011;42800;53.928;27.662;2022-07-23T09:09:18;8.50;;;4.60;;
56911;SDS011;42800;53.928;27.662;2022-07-23T09:11:45;6.82;;;4.50;;
56911;SDS011;42800;53.928;27.662;2022-07-23T09:14:12;5.53;;;4.22;;
56911;SDS011;42800;53.928;27.662;2022-07-23T09:16:38;5.90;;;4.95;;
56911;SDS011;42800;53.928;27.662;2022-07-23T09:19:06;5.22;;;4.82;;
56911;SDS011;42800;53.928;27.662;2022-07-23T09:21:33;6.65;;;4.68;;
56911;SDS011;42800;53.928;27.662;2022-07-23T09:24:01;6.20;;;4.70;;
56911;SDS011;42800;53.928;27.662;2022-07-23T09:26:29;5.47;;;4.82;;
56911;SDS011;42800;53.928;27.662;2022-07-23T09:28:59;9.93;;;4.72;;
56911;SDS011;42800;53.928;27.662;2022-07-23T09:31:31;8.85;;;4.80;;
56911;SDS011;42800;53.928;27.662;2022-07-23T09:34:06;9.00;;;4.72;;
56911;SDS011;42800;53.928;27.662;2022-07-23T09:36:34;7.18;;;4.72;;
56911;SDS011;42800;53.928;27.662;2022-07-23T09:39:01;5.10;;;4.63;;
56911;SDS011;42800;53.928;27.662;2022-07-23T09:41:33;6.63;;;4.90;;
56911;SDS011;42800;53.928;27.662;2022-07-23T09:44:05;6.95;;;5.32;;
56911;SDS011;42800;53.928;27.662;2022-07-23T09:46:34;8.55;;;4.68;;
56911;SDS011;42800;53.928;27.662;2022-07-23T09:49:00;6.72;;;4.68;;
56911;SDS011;42800;53.928;27.662;2022-07-23T09:51:42;5.22;;;4.78;;
56911;SDS011;42800;53.928;27.662;2022-07-23T09:54:19;10.55;;;4.90;;
56911;SDS011;42800;53.928;27.662;2022-07-23T09:56:51;9.50;;;4.78;;
56911;SDS011;42800;53.928;27.662;2022-07-23T09:59:18;6.88;;;4.90;;
56911;SDS011;42800;53.928;27.662;2022-07-23T10:01:48;7.18;;;4.90;;
56911;SDS011;42800;53.928;27.662;2022-07-23T10:04:16;6.28;;;5.00;;
56911;SDS011;42800;53.928;27.662;2022-07-23T10:06:44;8.68;;;5.00;;
56911;SDS011;42800;53.928;27.662;2022-07-23T10:09:11;8.15;;;5.72;;
56911;SDS011;42800;53.928;27.662;2022-07-23T10:11:41;6.70;;;4.68;;
56911;SDS011;42800;53.928;27.662;2022-07-23T10:14:08;7.85;;;5.05;;
56911;SDS011;42800;53.928;27.662;2022-07-23T10:16:34;8.45;;;5.00;;
56911;SDS011;42800;53.928;27.662;2022-07-23T10:19:01;7.07;;;4.78;;
56911;SDS011;42800;53.928;27.662;2022-07-23T10:21:30;5.93;;;4.70;;
56911;SDS011;42800;53.928;27.662;2022-07-23T10:24:09;7.07;;;4.97;;
56911;SDS011;42800;53.928;27.662;2022-07-23T10:26:44;5.47;;;4.85;;
56911;SDS011;42800;53.928;27.662;2022-07-23T10:29:20;11.82;;;5.38;;
56911;SDS011;42800;53.928;27.662;2022-07-23T10:32:00;7.80;;;4.93;;
56911;SDS011;42800;53.928;27.662;2022-07-23T10:34:38;6.90;;;5.13;;
56911;SDS011;42800;53.928;27.662;2022-07-23T10:37:12;6.50;;;5.15;;
56911;SDS011;42800;53.928;27.662;2022-07-23T10:39:45;11.68;;;5.30;;
56911;SDS011;42800;53.928;27.662;2022-07-23T10:42:12;11.02;;;5.00;;
56911;SDS011;42800;53.928;27.662;2022-07-23T10:44:40;5.35;;;4.80;;
56911;SDS011;42800;53.928;27.662;2022-07-23T10:47:08;12.38;;;5.18;;
56911;SDS011;42800;53.928;27.662;2022-07-23T10:49:42;12.90;;;5.15;;
56911;SDS011;42800;53.928;27.662;2022-07-23T10:52:16;5.57;;;4.90;;
56911;SDS011;42800;53.928;27.662;2022-07-23T10:54:50;7.15;;;5.13;;
56911;SDS011;42800;53.928;27.662;2022-07-23T10:57:18;7.60;;;5.00;;
56911;SDS011;42800;53.928;27.662;2022-07-23T11:02:47;5.60;;;5.15;;
56911;SDS011;42800;53.928;27.662;2022-07-23T11:05:14;8.60;;;5.18;;
56911;SDS011;42800;53.928;27.662;2022-07-23T11:10:38;10.07;;;5.43;;
56911;SDS011;42800;53.928;27.662;2022-07-23T11:19:04;9.32;;;5.07;;
56911;SDS011;42800;53.928;27.662;2022-07-23T11:21:40;8.40;;;4.95;;
56911;SDS011;42800;53.928;27.662;2022-07-23T11:24:17;7.30;;;5.60;;
56911;SDS011;42800;53.928;27.662;2022-07-23T11:26:49;5.78;;;5.20;;
56911;SDS011;42800;53.928;27.662;2022-07-23T11:29:41;6.07;;;5.15;;
56911;SDS011;42800;53.928;27.662;2022-07-23T11:32:17;8.13;;;5.18;;
56911;SDS011;42800;53.928;27.662;2022-07-23T11:34:53;7.55;;;5.45;;
56911;SDS011;42800;53.928;27.662;2022-07-23T11:37:31;5.80;;;5.22;;
56911;SDS011;42800;53.928;27.662;2022-07-23T11:39:59;10.18;;;4.80;;
56911;SDS011;42800;53.928;27.662;2022-07-23T11:42:27;11.05;;;5.95;;
56911;SDS011;42800;53.928;27.662;2022-07-23T11:44:53;7.55;;;5.72;;
56911;SDS011;42800;53.928;27.662;2022-07-23T11:47:21;6.70;;;5.07;;
56911;SDS011;42800;53.928;27.662;2022-07-23T11:49:52;5.28;;;4.82;;
56911;SDS011;42800;53.928;27.662;2022-07-23T11:52:19;6.13;;;5.43;;
56911;SDS011;42800;53.928;27.662;2022-07-23T11:54:47;9.80;;;5.82;;
56911;SDS011;42800;53.928;27.662;2022-07-23T11:57:15;5.97;;;4.88;;
56911;SDS011;42800;53.928;27.662;2022-07-23T11:59:42;10.52;;;5.60;;
56911;SDS011;42800;53.928;27.662;2022-07-23T12:02:11;8.27;;;5.57;;
56911;SDS011;42800;53.928;27.662;2022-07-23T12:04:37;8.80;;;5.65;;
56911;SDS011;42800;53.928;27.662;2022-07-23T12:07:04;9.35;;;5.88;;
56911;SDS011;42800;53.928;27.662;2022-07-23T12:09:30;7.93;;;5.47;;
56911;SDS011;42800;53.928;27.662;2022-07-23T12:11:57;8.85;;;5.43;;
56911;SDS011;42800;53.928;27.662;2022-07-23T12:14:23;6.55;;;5.38;;
56911;SDS011;42800;53.928;27.662;2022-07-23T12:19:34;6.10;;;5.50;;
56911;SDS011;42800;53.928;27.662;2022-07-23T12:22:00;7.10;;;5.38;;
56911;SDS011;42800;53.928;27.662;2022-07-23T12:24:27;14.65;;;5.80;;
56911;SDS011;42800;53.928;27.662;2022-07-23T12:29:34;6.63;;;5.40;;
56911;SDS011;42800;53.928;27.662;2022-07-23T12:32:01;7.35;;;5.45;;
56911;SDS011;42800;53.928;27.662;2022-07-23T12:34:28;10.02;;;5.35;;
56911;SDS011;42800;53.928;27.662;2022-07-23T12:36:54;9.30;;;5.68;;
56911;SDS011;42800;53.928;27.662;2022-07-23T12:39:29;7.93;;;5.68;;
56911;SDS011;42800;53.928;27.662;2022-07-23T12:41:56;7.50;;;5.60;;
56911;SDS011;42800;53.928;27.662;2022-07-23T12:44:22;8.23;;;5.75;;
56911;SDS011;42800;53.928;27.662;2022-07-23T12:46:49;7.60;;;5.63;;
56911;SDS011;42800;53.928;27.662;2022-07-23T12:49:24;7.65;;;5.70;;
56911;SDS011;42800;53.928;27.662;2022-07-23T12:51:52;8.20;;;5.85;;
56911;SDS011;42800;53.928;27.662;2022-07-23T12:54:19;9.32;;;6.03;;
56911;SDS011;42800;53.928;27.662;2022-07-23T12:56:53;8.57;;;5.80;;
56911;SDS011;42800;53.928;27.662;2022-07-23T12:59:20;8.35;;;5.70;;
56911;SDS011;42800;53.928;27.662;2022-07-23T13:01:53;8.57;;;5.70;;
56911;SDS011;42800;53.928;27.662;2022-07-23T13:04:21;12.80;;;6.07;;
56911;SDS011;42800;53.928;27.662;2022-07-23T13:06:49;11.95;;;5.45;;
56911;SDS011;42800;53.928;27.662;2022-07-23T13:09:18;7.45;;;6.05;;
56911;SDS011;42800;53.928;27.662;2022-07-23T13:11:45;6.00;;;5.50;;
56911;SDS011;42800;53.928;27.662;2022-07-23T13:14:12;7.93;;;6.00;;
56911;SDS011;42800;53.928;27.662;2022-07-23T13:16:39;10.10;;;5.85;;
56911;SDS011;42800;53.928;27.662;2022-07-23T13:19:06;9.48;;;6.47;;
56911;SDS011;42800;53.928;27.662;2022-07-23T13:21:33;7.50;;;6.10;;
56911;SDS011;42800;53.928;27.662;2022-07-23T13:23:59;11.35;;;6.57;;
56911;SDS011;42800;53.928;27.662;2022-07-23T13:26:26;8.40;;;6.70;;
56911;SDS011;42800;53.928;27.662;2022-07-23T13:28:54;9.95;;;6.00;;
56911;SDS011;42800;53.928;27.662;2022-07-23T13:31:21;8.23;;;5.82;;
56911;SDS011;42800;53.928;27.662;2022-07-23T13:33:47;8.77;;;6.05;;
56911;SDS011;42800;53.928;27.662;2022-07-23T13:36:13;8.50;;;6.22;;
56911;SDS011;42800;53.928;27.662;2022-07-23T13:38:40;8.85;;;6.65;;
56911;SDS011;42800;53.928;27.662;2022-07-23T13:41:06;10.23;;;6.38;;
56911;SDS011;42800;53.928;27.662;2022-07-23T13:43:33;8.00;;;6.03;;
56911;SDS011;42800;53.928;27.662;2022-07-23T13:45:59;8.73;;;6.07;;
56911;SDS011;42800;53.928;27.662;2022-07-23T13:48:25;7.72;;;5.78;;
56911;SDS011;42800;53.928;27.662;2022-07-23T13:50:51;9.27;;;6.45;;
56911;SDS011;42800;53.928;27.662;2022-07-23T13:53:19;9.25;;;6.38;;
56911;SDS011;42800;53.928;27.662;2022-07-23T13:55:47;8.55;;;6.85;;
56911;SDS011;42800;53.928;27.662;2022-07-23T13:58:14;8.55;;;5.93;;
56911;SDS011;42800;53.928;27.662;2022-07-23T14:00:42;8.60;;;6.55;;
56911;SDS011;42800;53.928;27.662;2022-07-23T14:03:11;7.85;;;6.45;;
56911;SDS011;42800;53.928;27.662;2022-07-23T14:05:37;9.48;;;6.95;;
56911;SDS011;42800;53.928;27.662;2022-07-23T14:08:03;11.75;;;6.82;;
56911;SDS011;42800;53.928;27.662;2022-07-23T14:10:30;9.20;;;6.63;;
56911;SDS011;42800;53.928;27.662;2022-07-23T14:12:57;7.85;;;6.03;;
56911;SDS011;42800;53.928;27.662;2022-07-23T14:15:25;10.75;;;6.28;;
56911;SDS011;42800;53.928;27.662;2022-07-23T14:17:53;8.13;;;6.43;;
56911;SDS011;42800;53.928;27.662;2022-07-23T14:20:20;7.75;;;6.13;;
56911;SDS011;42800;53.928;27.662;2022-07-23T14:22:47;7.05;;;6.35;;
56911;SDS011;42800;53.928;27.662;2022-07-23T14:25:14;8.27;;;6.65;;
56911;SDS011;42800;53.928;27.662;2022-07-23T14:27:41;11.98;;;6.38;;
56911;SDS011;42800;53.928;27.662;2022-07-23T14:30:08;9.82;;;6.43;;
56911;SDS011;42800;53.928;27.662;2022-07-23T14:32:35;10.90;;;6.40;;
56911;SDS011;42800;53.928;27.662;2022-07-23T14:35:02;8.05;;;6.53;;
56911;SDS011;42800;53.928;27.662;2022-07-23T14:37:29;11.02;;;6.57;;
56911;SDS011;42800;53.928;27.662;2022-07-23T14:39:55;10.65;;;7.32;;
56911;SDS011;42800;53.928;27.662;2022-07-23T14:42:22;10.98;;;7.03;;
56911;SDS011;42800;53.928;27.662;2022-07-23T14:44:48;13.95;;;7.35;;
56911;SDS011;42800;53.928;27.662;2022-07-23T14:47:15;11.73;;;6.70;;
56911;SDS011;42800;53.928;27.662;2022-07-23T14:49:41;9.60;;;6.65;;